sensor_id;sensor_type;location;lat;lon;timestamp;temperature;humidity
16846;DHT22;8539;53.188;8.696;2022-11-20T00:01:21;0.70;99.90
16846;DHT22;8539;53.188;8.696;2022-11-20T00:03:47;0.70;99.90
16846;DHT22;8539;53.188;8.696;2022-11-20T00:06:18;0.90;99.90
16846;DHT22;8539;53.188;8.696;2022-11-20T00:08:45;0.70;99.90
16846;DHT22;8539;53.188;8.696;2022-11-20T00:11:22;0.70;99.90
16846;DHT22;8539;53.188;8.696;2022-11-20T00:13:51;0.80;99.90
16846;DHT22;8539;53.188;8.696;2022-11-20T00:16:20;0.80;99.90
16846;DHT22;8539;53.188;8.696;2022-11-20T00:18:46;0.80;99.90
16846;DHT22;8539;53.188;8.696;2022-11-20T00:21:18;0.70;99.90
16846;DHT22;8539;53.188;8.696;2022-11-20T00:23:48;1.20;99.90
16846;DHT22;8539;53.188;8.696;2022-11-20T00:26:46;0.70;99.90
16846;DHT22;8539;53.188;8.696;2022-11-20T00:29:23;0.80;99.90
16846;DHT22;8539;53.188;8.696;2022-11-20T00:31:55;0.70;99.90
16846;DHT22;8539;53.188;8.696;2022-11-20T00:34:25;0.70;99.90
16846;DHT22;8539;53.188;8.696;2022-11-20T00:36:53;1.20;99.90
16846;DHT22;8539;53.188;8.696;2022-11-20T00:39:19;1.60;99.90
16846;DHT22;8539;53.188;8.696;2022-11-20T00:41:45;1.60;99.90
16846;DHT22;8539;53.188;8.696;2022-11-20T00:44:11;0.70;99.90
16846;DHT22;8539;53.188;8.696;2022-11-20T00:46:37;0.80;99.90
16846;DHT22;8539;53.188;8.696;2022-11-20T00:49:03;0.70;99.90
16846;DHT22;8539;53.188;8.696;2022-11-20T00:51:29;0.70;99.90
16846;DHT22;8539;53.188;8.696;2022-11-20T00:53:57;0.80;99.90
16846;DHT22;8539;53.188;8.696;2022-11-20T00:56:24;1.20;99.90
16846;DHT22;8539;53.188;8.696;2022-11-20T00:58:50;1.40;99.90
16846;DHT22;8539;53.188;8.696;2022-11-20T01:01:24;0.70;99.90
16846;DHT22;8539;53.188;8.696;2022-11-20T01:03:52;0.70;99.90
16846;DHT22;8539;53.188;8.696;2022-11-20T01:06:30;0.70;99.90
16846;DHT22;8539;53.188;8.696;2022-11-20T01:08:59;0.70;99.90
16846;DHT22;8539;53.188;8.696;2022-11-20T01:11:31;0.70;99.90
16846;DHT22;8539;53.188;8.696;2022-11-20T01:13:59;0.70;99.90
16846;DHT22;8539;53.188;8.696;2022-11-20T01:16:34;0.70;99.90
16846;DHT22;8539;53.188;8.696;2022-11-20T01:19:02;0.70;99.90
16846;DHT22;8539;53.188;8.696;2022-11-20T01:21:34;0.70;99.90
16846;DHT22;8539;53.188;8.696;2022-11-20T01:24:01;0.80;99.90
16846;DHT22;8539;53.188;8.696;2022-11-20T01:26:30;1.10;99.90
16846;DHT22;8539;53.188;8.696;2022-11-20T01:28:57;0.70;99.90
16846;DHT22;8539;53.188;8.696;2022-11-20T01:31:31;0.60;99.90
16846;DHT22;8539;53.188;8.696;2022-11-20T01:34:05;0.60;99.90
16846;DHT22;8539;53.188;8.696;2022-11-20T01:36:33;0.60;99.90
16846;DHT22;8539;53.188;8.696;2022-11-20T01:39:14;0.60;99.90
16846;DHT22;8539;53.188;8.696;2022-11-20T01:41:41;0.60;99.90
16846;DHT22;8539;53.188;8.696;2022-11-20T01:44:52;0.60;99.90
16846;DHT22;8539;53.188;8.696;2022-11-20T01:47:34;0.60;99.90
16846;DHT22;8539;53.188;8.696;2022-11-20T01:50:15;0.60;99.90
16846;DHT22;8539;53.188;8.696;2022-11-20T01:53:09;0.60;99.90
16846;DHT22;8539;53.188;8.696;2022-11-20T01:55:50;0.70;99.90
16846;DHT22;8539;53.188;8.696;2022-11-20T01:58:21;0.60;99.90
16846;DHT22;8539;53.188;8.696;2022-11-20T02:00:48;1.00;99.90
16846;DHT22;8539;53.188;8.696;2022-11-20T02:03:19;0.80;99.90
16846;DHT22;8539;53.188;8.696;2022-11-20T02:05:51;0.60;99.90
16846;DHT22;8539;53.188;8.696;2022-11-20T02:08:20;1.00;99.90
16846;DHT22;8539;53.188;8.696;2022-11-20T02:10:47;1.00;99.90
16846;DHT22;8539;53.188;8.696;2022-11-20T02:13:13;0.60;99.90
16846;DHT22;8539;53.188;8.696;2022-11-20T02:15:57;0.90;99.90
16846;DHT22;8539;53.188;8.696;2022-11-20T02:18:24;0.70;99.90
16846;DHT22;8539;53.188;8.696;2022-11-20T02:21:09;0.60;99.90
16846;DHT22;8539;53.188;8.696;2022-11-20T02:23:39;0.60;99.90
16846;DHT22;8539;53.188;8.696;2022-11-20T02:26:12;0.60;99.90
16846;DHT22;8539;53.188;8.696;2022-11-20T02:28:39;0.60;99.90
16846;DHT22;8539;53.188;8.696;2022-11-20T02:31:05;0.60;99.90
16846;DHT22;8539;53.188;8.696;2022-11-20T02:33:32;0.60;99.90
16846;DHT22;8539;53.188;8.696;2022-11-20T02:35:58;0.50;99.90
16846;DHT22;8539;53.188;8.696;2022-11-20T02:38:24;0.50;99.90
16846;DHT22;8539;53.188;8.696;2022-11-20T02:40:50;0.50;99.90
16846;DHT22;8539;53.188;8.696;2022-11-20T02:43:16;0.50;99.90
16846;DHT22;8539;53.188;8.696;2022-11-20T02:45:42;0.80;99.90
16846;DHT22;8539;53.188;8.696;2022-11-20T02:48:08;0.50;99.90
16846;DHT22;8539;53.188;8.696;2022-11-20T02:50:37;0.50;99.90
16846;DHT22;8539;53.188;8.696;2022-11-20T02:53:04;0.50;99.90
16846;DHT22;8539;53.188;8.696;2022-11-20T02:55:30;0.60;99.90
16846;DHT22;8539;53.188;8.696;2022-11-20T02:57:56;0.50;99.90
16846;DHT22;8539;53.188;8.696;2022-11-20T03:00:44;0.90;99.90
16846;DHT22;8539;53.188;8.696;2022-11-20T03:03:10;0.50;99.90
16846;DHT22;8539;53.188;8.696;2022-11-20T03:05:36;0.50;99.90
16846;DHT22;8539;53.188;8.696;2022-11-20T03:08:02;0.50;99.90
16846;DHT22;8539;53.188;8.696;2022-11-20T03:10:28;0.50;99.90
16846;DHT22;8539;53.188;8.696;2022-11-20T03:12:55;0.60;99.90
16846;DHT22;8539;53.188;8.696;2022-11-20T03:15:22;0.60;99.90
16846;DHT22;8539;53.188;8.696;2022-11-20T03:17:49;0.60;99.90
16846;DHT22;8539;53.188;8.696;2022-11-20T03:20:15;1.00;99.90
16846;DHT22;8539;53.188;8.696;2022-11-20T03:22:41;0.60;99.90
16846;DHT22;8539;53.188;8.696;2022-11-20T03:25:07;1.20;99.90
16846;DHT22;8539;53.188;8.696;2022-11-20T03:27:34;0.50;99.90
16846;DHT22;8539;53.188;8.696;2022-11-20T03:30:00;0.50;99.90
16846;DHT22;8539;53.188;8.696;2022-11-20T03:32:37;0.50;99.90
16846;DHT22;8539;53.188;8.696;2022-11-20T03:35:03;0.50;99.90
16846;DHT22;8539;53.188;8.696;2022-11-20T03:37:32;0.50;99.90
16846;DHT22;8539;53.188;8.696;2022-11-20T03:39:58;0.50;99.90
16846;DHT22;8539;53.188;8.696;2022-11-20T03:42:24;0.90;99.90
16846;DHT22;8539;53.188;8.696;2022-11-20T03:45:17;1.00;99.90
16846;DHT22;8539;53.188;8.696;2022-11-20T03:47:57;0.50;99.90
16846;DHT22;8539;53.188;8.696;2022-11-20T03:50:23;0.60;99.90
16846;DHT22;8539;53.188;8.696;2022-11-20T03:52:49;0.60;99.90
16846;DHT22;8539;53.188;8.696;2022-11-20T03:55:15;0.90;99.90
16846;DHT22;8539;53.188;8.696;2022-11-20T03:57:41;0.60;99.90
16846;DHT22;8539;53.188;8.696;2022-11-20T04:00:25;0.70;99.90
16846;DHT22;8539;53.188;8.696;2022-11-20T04:02:58;0.60;99.90
16846;DHT22;8539;53.188;8.696;2022-11-20T04:05:24;1.30;99.90
16846;DHT22;8539;53.188;8.696;2022-11-20T04:07:50;0.60;99.90
16846;DHT22;8539;53.188;8.696;2022-11-20T04:10:16;1.30;99.90
16846;DHT22;8539;53.188;8.696;2022-11-20T04:12:42;0.60;99.90
16846;DHT22;8539;53.188;8.696;2022-11-20T04:15:09;0.60;99.90
16846;DHT22;8539;53.188;8.696;2022-11-20T04:17:35;0.60;99.90
16846;DHT22;8539;53.188;8.696;2022-11-20T04:20:01;0.70;99.90
16846;DHT22;8539;53.188;8.696;2022-11-20T04:22:28;0.70;99.90
16846;DHT22;8539;53.188;8.696;2022-11-20T04:24:54;0.70;99.90
16846;DHT22;8539;53.188;8.696;2022-11-20T04:27:20;0.80;99.90
16846;DHT22;8539;53.188;8.696;2022-11-20T04:29:46;0.70;99.90
16846;DHT22;8539;53.188;8.696;2022-11-20T04:32:12;1.30;99.90
16846;DHT22;8539;53.188;8.696;2022-11-20T04:34:38;0.70;99.90
16846;DHT22;8539;53.188;8.696;2022-11-20T04:37:04;0.70;99.90
16846;DHT22;8539;53.188;8.696;2022-11-20T04:39:30;0.80;99.90
16846;DHT22;8539;53.188;8.696;2022-11-20T04:41:56;0.70;99.90
16846;DHT22;8539;53.188;8.696;2022-11-20T04:44:41;0.90;99.90
16846;DHT22;8539;53.188;8.696;2022-11-20T04:47:07;0.90;99.90
16846;DHT22;8539;53.188;8.696;2022-11-20T04:49:33;0.70;99.90
16846;DHT22;8539;53.188;8.696;2022-11-20T04:51:59;0.70;99.90
16846;DHT22;8539;53.188;8.696;2022-11-20T04:54:25;1.50;99.90
16846;DHT22;8539;53.188;8.696;2022-11-20T04:56:51;0.80;99.90
16846;DHT22;8539;53.188;8.696;2022-11-20T04:59:17;0.70;99.90
16846;DHT22;8539;53.188;8.696;2022-11-20T05:01:43;1.30;99.90
16846;DHT22;8539;53.188;8.696;2022-11-20T05:04:09;0.70;99.90
16846;DHT22;8539;53.188;8.696;2022-11-20T05:06:35;1.10;99.90
16846;DHT22;8539;53.188;8.696;2022-11-20T05:09:01;0.70;99.90
16846;DHT22;8539;53.188;8.696;2022-11-20T05:11:28;0.70;99.90
16846;DHT22;8539;53.188;8.696;2022-11-20T05:13:58;0.70;99.90
16846;DHT22;8539;53.188;8.696;2022-11-20T05:16:25;0.70;99.90
16846;DHT22;8539;53.188;8.696;2022-11-20T05:18:52;0.80;99.90
16846;DHT22;8539;53.188;8.696;2022-11-20T05:21:19;0.70;99.90
16846;DHT22;8539;53.188;8.696;2022-11-20T05:23:46;1.20;99.90
16846;DHT22;8539;53.188;8.696;2022-11-20T05:26:20;1.10;99.90
16846;DHT22;8539;53.188;8.696;2022-11-20T05:28:50;0.70;99.90
16846;DHT22;8539;53.188;8.696;2022-11-20T05:31:19;0.70;99.90
16846;DHT22;8539;53.188;8.696;2022-11-20T05:33:45;0.90;99.90
16846;DHT22;8539;53.188;8.696;2022-11-20T05:36:13;0.60;99.90
16846;DHT22;8539;53.188;8.696;2022-11-20T05:38:40;0.70;99.90
16846;DHT22;8539;53.188;8.696;2022-11-20T05:41:16;0.70;99.90
16846;DHT22;8539;53.188;8.696;2022-11-20T05:43:44;1.10;99.90
16846;DHT22;8539;53.188;8.696;2022-11-20T05:46:12;0.90;99.90
16846;DHT22;8539;53.188;8.696;2022-11-20T05:48:39;0.70;99.90
16846;DHT22;8539;53.188;8.696;2022-11-20T05:51:07;0.70;99.90
16846;DHT22;8539;53.188;8.696;2022-11-20T05:53:34;0.70;99.90
16846;DHT22;8539;53.188;8.696;2022-11-20T05:56:05;0.80;99.90
16846;DHT22;8539;53.188;8.696;2022-11-20T05:58:32;0.60;99.90
16846;DHT22;8539;53.188;8.696;2022-11-20T06:01:21;0.60;99.90
16846;DHT22;8539;53.188;8.696;2022-11-20T06:03:47;0.60;99.90
16846;DHT22;8539;53.188;8.696;2022-11-20T06:06:17;0.60;99.90
16846;DHT22;8539;53.188;8.696;2022-11-20T06:08:44;0.80;99.90
16846;DHT22;8539;53.188;8.696;2022-11-20T06:11:12;0.60;99.90
16846;DHT22;8539;53.188;8.696;2022-11-20T06:13:39;0.60;99.90
16846;DHT22;8539;53.188;8.696;2022-11-20T06:16:05;0.60;99.90
16846;DHT22;8539;53.188;8.696;2022-11-20T06:18:31;0.60;99.90
16846;DHT22;8539;53.188;8.696;2022-11-20T06:21:03;1.00;99.90
16846;DHT22;8539;53.188;8.696;2022-11-20T06:23:31;0.60;99.90
16846;DHT22;8539;53.188;8.696;2022-11-20T06:26:00;0.50;99.90
16846;DHT22;8539;53.188;8.696;2022-11-20T06:28:26;0.80;99.90
16846;DHT22;8539;53.188;8.696;2022-11-20T06:30:53;0.50;99.90
16846;DHT22;8539;53.188;8.696;2022-11-20T06:33:19;0.50;99.90
16846;DHT22;8539;53.188;8.696;2022-11-20T06:35:45;0.50;99.90
16846;DHT22;8539;53.188;8.696;2022-11-20T06:38:11;0.50;99.90
16846;DHT22;8539;53.188;8.696;2022-11-20T06:40:40;1.10;99.90
16846;DHT22;8539;53.188;8.696;2022-11-20T06:43:07;0.50;99.90
16846;DHT22;8539;53.188;8.696;2022-11-20T06:45:33;0.60;99.90
16846;DHT22;8539;53.188;8.696;2022-11-20T06:47:59;1.30;99.90
16846;DHT22;8539;53.188;8.696;2022-11-20T06:50:51;0.50;99.90
16846;DHT22;8539;53.188;8.696;2022-11-20T06:53:17;1.50;99.90
16846;DHT22;8539;53.188;8.696;2022-11-20T06:55:55;1.00;99.90
16846;DHT22;8539;53.188;8.696;2022-11-20T06:58:27;1.30;99.90
16846;DHT22;8539;53.188;8.696;2022-11-20T07:04:45;0.50;99.90
16846;DHT22;8539;53.188;8.696;2022-11-20T07:07:19;-0.50;99.90
16846;DHT22;8539;53.188;8.696;2022-11-20T07:09:54;1.10;99.90
16846;DHT22;8539;53.188;8.696;2022-11-20T07:12:21;1.40;99.90
16846;DHT22;8539;53.188;8.696;2022-11-20T07:22:45;0.20;99.90
16846;DHT22;8539;53.188;8.696;2022-11-20T07:28:38;0.70;99.90
16846;DHT22;8539;53.188;8.696;2022-11-20T07:38:15;0.20;99.90
16846;DHT22;8539;53.188;8.696;2022-11-20T07:40:41;1.30;99.90
16846;DHT22;8539;53.188;8.696;2022-11-20T07:43:26;0.30;99.90
16846;DHT22;8539;53.188;8.696;2022-11-20T07:54:37;0.30;99.90
16846;DHT22;8539;53.188;8.696;2022-11-20T07:57:03;0.50;99.90
16846;DHT22;8539;53.188;8.696;2022-11-20T07:59:44;0.50;99.90
16846;DHT22;8539;53.188;8.696;2022-11-20T08:02:46;0.40;99.90
16846;DHT22;8539;53.188;8.696;2022-11-20T08:06:29;0.50;99.90
16846;DHT22;8539;53.188;8.696;2022-11-20T08:09:20;0.10;99.90
16846;DHT22;8539;53.188;8.696;2022-11-20T08:11:48;0.50;99.90
16846;DHT22;8539;53.188;8.696;2022-11-20T08:14:33;1.40;99.90
16846;DHT22;8539;53.188;8.696;2022-11-20T08:16:59;0.80;99.90
16846;DHT22;8539;53.188;8.696;2022-11-20T08:19:25;0.70;99.90
16846;DHT22;8539;53.188;8.696;2022-11-20T08:21:51;1.20;99.90
16846;DHT22;8539;53.188;8.696;2022-11-20T08:24:17;0.90;99.90
16846;DHT22;8539;53.188;8.696;2022-11-20T08:26:43;0.90;99.90
16846;DHT22;8539;53.188;8.696;2022-11-20T08:29:09;1.20;99.90
16846;DHT22;8539;53.188;8.696;2022-11-20T08:31:35;1.20;99.90
16846;DHT22;8539;53.188;8.696;2022-11-20T08:34:01;1.10;99.90
16846;DHT22;8539;53.188;8.696;2022-11-20T08:36:27;1.80;99.90
16846;DHT22;8539;53.188;8.696;2022-11-20T08:38:55;1.10;99.90
16846;DHT22;8539;53.188;8.696;2022-11-20T08:41:22;1.40;99.90
16846;DHT22;8539;53.188;8.696;2022-11-20T08:43:59;1.20;99.90
16846;DHT22;8539;53.188;8.696;2022-11-20T08:46:30;1.30;99.90
16846;DHT22;8539;53.188;8.696;2022-11-20T08:48:58;1.40;99.90
16846;DHT22;8539;53.188;8.696;2022-11-20T08:51:24;1.30;99.90
16846;DHT22;8539;53.188;8.696;2022-11-20T08:53:50;1.40;99.90
16846;DHT22;8539;53.188;8.696;2022-11-20T08:56:17;1.80;99.90
16846;DHT22;8539;53.188;8.696;2022-11-20T08:58:43;1.40;99.90
16846;DHT22;8539;53.188;8.696;2022-11-20T09:01:10;1.40;99.90
16846;DHT22;8539;53.188;8.696;2022-11-20T09:03:36;1.50;99.90
16846;DHT22;8539;53.188;8.696;2022-11-20T09:06:05;1.50;99.90
16846;DHT22;8539;53.188;8.696;2022-11-20T09:08:31;1.50;99.90
16846;DHT22;8539;53.188;8.696;2022-11-20T09:10:58;1.70;99.90
16846;DHT22;8539;53.188;8.696;2022-11-20T09:13:26;1.50;99.90
16846;DHT22;8539;53.188;8.696;2022-11-20T09:15:53;1.70;99.90
16846;DHT22;8539;53.188;8.696;2022-11-20T09:18:20;1.60;99.90
16846;DHT22;8539;53.188;8.696;2022-11-20T09:20:46;1.60;99.90
16846;DHT22;8539;53.188;8.696;2022-11-20T09:23:13;1.50;99.90
16846;DHT22;8539;53.188;8.696;2022-11-20T09:25:39;1.40;99.90
16846;DHT22;8539;53.188;8.696;2022-11-20T09:28:05;1.90;99.90
16846;DHT22;8539;53.188;8.696;2022-11-20T09:30:31;1.40;99.90
16846;DHT22;8539;53.188;8.696;2022-11-20T09:32:57;1.40;99.90
16846;DHT22;8539;53.188;8.696;2022-11-20T09:35:23;1.90;99.90
16846;DHT22;8539;53.188;8.696;2022-11-20T09:37:49;1.80;99.90
16846;DHT22;8539;53.188;8.696;2022-11-20T09:40:22;1.30;99.90
16846;DHT22;8539;53.188;8.696;2022-11-20T09:42:54;1.30;99.90
16846;DHT22;8539;53.188;8.696;2022-11-20T09:56:21;1.10;99.90
16846;DHT22;8539;53.188;8.696;2022-11-20T09:58:50;1.10;99.90
16846;DHT22;8539;53.188;8.696;2022-11-20T10:01:20;1.10;99.90
16846;DHT22;8539;53.188;8.696;2022-11-20T10:06:33;1.10;99.90
16846;DHT22;8539;53.188;8.696;2022-11-20T10:09:57;1.10;99.90
16846;DHT22;8539;53.188;8.696;2022-11-20T10:13:12;1.10;99.90
16846;DHT22;8539;53.188;8.696;2022-11-20T10:29:16;1.10;99.90
16846;DHT22;8539;53.188;8.696;2022-11-20T10:31:49;1.60;99.90
16846;DHT22;8539;53.188;8.696;2022-11-20T10:34:53;1.00;99.90
16846;DHT22;8539;53.188;8.696;2022-11-20T10:37:25;1.20;99.90
16846;DHT22;8539;53.188;8.696;2022-11-20T10:42:55;1.10;99.90
16846;DHT22;8539;53.188;8.696;2022-11-20T10:50:35;1.10;99.90
16846;DHT22;8539;53.188;8.696;2022-11-20T10:53:08;1.70;99.90
16846;DHT22;8539;53.188;8.696;2022-11-20T10:55:46;1.20;99.90
16846;DHT22;8539;53.188;8.696;2022-11-20T10:58:37;1.20;99.90
16846;DHT22;8539;53.188;8.696;2022-11-20T11:01:15;1.20;99.90
16846;DHT22;8539;53.188;8.696;2022-11-20T11:03:42;1.20;99.90
16846;DHT22;8539;53.188;8.696;2022-11-20T11:06:21;1.20;99.90
16846;DHT22;8539;53.188;8.696;2022-11-20T11:08:51;1.30;99.90
16846;DHT22;8539;53.188;8.696;2022-11-20T11:11:28;1.50;99.90
16846;DHT22;8539;53.188;8.696;2022-11-20T11:14:06;1.80;99.90
16846;DHT22;8539;53.188;8.696;2022-11-20T11:16:34;2.30;99.90
16846;DHT22;8539;53.188;8.696;2022-11-20T11:19:05;2.60;99.90
16846;DHT22;8539;53.188;8.696;2022-11-20T11:21:37;3.20;99.90
16846;DHT22;8539;53.188;8.696;2022-11-20T11:24:25;3.20;99.90
16846;DHT22;8539;53.188;8.696;2022-11-20T11:27:00;4.10;99.90
16846;DHT22;8539;53.188;8.696;2022-11-20T11:29:30;4.10;99.90
16846;DHT22;8539;53.188;8.696;2022-11-20T11:32:05;4.10;99.90
16846;DHT22;8539;53.188;8.696;2022-11-20T11:34:31;4.00;99.90
16846;DHT22;8539;53.188;8.696;2022-11-20T11:36:58;4.00;99.90
16846;DHT22;8539;53.188;8.696;2022-11-20T11:39:26;3.90;99.90
16846;DHT22;8539;53.188;8.696;2022-11-20T11:41:53;3.80;99.90
16846;DHT22;8539;53.188;8.696;2022-11-20T11:44:31;3.70;99.90
16846;DHT22;8539;53.188;8.696;2022-11-20T11:55:38;3.00;99.90
16846;DHT22;8539;53.188;8.696;2022-11-20T12:01:32;3.20;99.90
16846;DHT22;8539;53.188;8.696;2022-11-20T12:06:47;3.60;99.90
16846;DHT22;8539;53.188;8.696;2022-11-20T12:09:14;3.70;99.90
16846;DHT22;8539;53.188;8.696;2022-11-20T12:11:55;3.60;99.90
16846;DHT22;8539;53.188;8.696;2022-11-20T12:14:36;3.50;99.90
16846;DHT22;8539;53.188;8.696;2022-11-20T12:17:03;3.30;99.90
16846;DHT22;8539;53.188;8.696;2022-11-20T12:19:34;3.20;99.90
16846;DHT22;8539;53.188;8.696;2022-11-20T12:30:19;2.70;99.90
16846;DHT22;8539;53.188;8.696;2022-11-20T12:41:55;2.30;99.90
16846;DHT22;8539;53.188;8.696;2022-11-20T12:45:28;2.80;99.90
16846;DHT22;8539;53.188;8.696;2022-11-20T12:54:57;2.80;99.90
16846;DHT22;8539;53.188;8.696;2022-11-20T12:57:21;3.10;99.90
16846;DHT22;8539;53.188;8.696;2022-11-20T13:03:08;2.50;99.90
16846;DHT22;8539;53.188;8.696;2022-11-20T13:08:34;2.70;99.90
16846;DHT22;8539;53.188;8.696;2022-11-20T13:11:30;2.30;99.90
16846;DHT22;8539;53.188;8.696;2022-11-20T13:16:58;4.20;99.90
16846;DHT22;8539;53.188;8.696;2022-11-20T13:19:29;4.30;99.90
16846;DHT22;8539;53.188;8.696;2022-11-20T13:21:58;4.70;99.90
16846;DHT22;8539;53.188;8.696;2022-11-20T13:24:29;4.40;99.90
16846;DHT22;8539;53.188;8.696;2022-11-20T13:27:03;5.50;99.90
16846;DHT22;8539;53.188;8.696;2022-11-20T13:29:37;6.10;99.90
16846;DHT22;8539;53.188;8.696;2022-11-20T13:32:18;6.80;99.90
16846;DHT22;8539;53.188;8.696;2022-11-20T13:34:58;7.60;99.90
16846;DHT22;8539;53.188;8.696;2022-11-20T13:37:37;8.40;99.90
16846;DHT22;8539;53.188;8.696;2022-11-20T13:43:04;9.30;99.90
16846;DHT22;8539;53.188;8.696;2022-11-20T13:45:33;9.30;99.90
16846;DHT22;8539;53.188;8.696;2022-11-20T13:48:39;8.70;99.90
16846;DHT22;8539;53.188;8.696;2022-11-20T13:57:32;5.70;99.90
16846;DHT22;8539;53.188;8.696;2022-11-20T14:02:44;3.90;99.90
16846;DHT22;8539;53.188;8.696;2022-11-20T14:05:22;4.40;99.90
16846;DHT22;8539;53.188;8.696;2022-11-20T14:07:52;3.60;99.90
16846;DHT22;8539;53.188;8.696;2022-11-20T14:10:25;4.00;99.90
16846;DHT22;8539;53.188;8.696;2022-11-20T14:12:52;3.40;99.90
16846;DHT22;8539;53.188;8.696;2022-11-20T14:15:30;3.30;99.90
16846;DHT22;8539;53.188;8.696;2022-11-20T14:17:59;3.70;99.90
16846;DHT22;8539;53.188;8.696;2022-11-20T14:20:29;3.40;99.90
16846;DHT22;8539;53.188;8.696;2022-11-20T14:22:57;2.60;99.90
16846;DHT22;8539;53.188;8.696;2022-11-20T14:25:26;2.40;99.90
16846;DHT22;8539;53.188;8.696;2022-11-20T14:27:59;2.20;99.90
16846;DHT22;8539;53.188;8.696;2022-11-20T14:30:46;2.50;99.90
16846;DHT22;8539;53.188;8.696;2022-11-20T14:33:18;1.40;99.90
16846;DHT22;8539;53.188;8.696;2022-11-20T14:35:49;1.80;99.90
16846;DHT22;8539;53.188;8.696;2022-11-20T14:38:24;1.80;99.90
16846;DHT22;8539;53.188;8.696;2022-11-20T14:41:24;1.60;99.90
16846;DHT22;8539;53.188;8.696;2022-11-20T14:43:59;0.00;99.90
16846;DHT22;8539;53.188;8.696;2022-11-20T14:46:30;1.70;99.90
16846;DHT22;8539;53.188;8.696;2022-11-20T14:48:57;0.80;99.90
16846;DHT22;8539;53.188;8.696;2022-11-20T14:51:39;1.10;99.90
16846;DHT22;8539;53.188;8.696;2022-11-20T14:54:17;1.00;99.90
16846;DHT22;8539;53.188;8.696;2022-11-20T14:57:00;1.00;99.90
16846;DHT22;8539;53.188;8.696;2022-11-20T14:59:32;0.90;99.90
16846;DHT22;8539;53.188;8.696;2022-11-20T15:02:25;0.80;99.90
16846;DHT22;8539;53.188;8.696;2022-11-20T15:04:58;0.10;99.90
16846;DHT22;8539;53.188;8.696;2022-11-20T15:07:28;0.70;99.90
16846;DHT22;8539;53.188;8.696;2022-11-20T15:10:09;0.60;99.90
16846;DHT22;8539;53.188;8.696;2022-11-20T15:12:38;0.50;99.90
16846;DHT22;8539;53.188;8.696;2022-11-20T15:15:09;0.50;99.90
16846;DHT22;8539;53.188;8.696;2022-11-20T15:17:38;0.50;99.90
16846;DHT22;8539;53.188;8.696;2022-11-20T15:20:14;0.50;99.90
16846;DHT22;8539;53.188;8.696;2022-11-20T15:22:40;0.30;99.90
16846;DHT22;8539;53.188;8.696;2022-11-20T15:25:14;0.20;99.90
16846;DHT22;8539;53.188;8.696;2022-11-20T15:27:41;0.10;99.90
16846;DHT22;8539;53.188;8.696;2022-11-20T15:30:19;0.00;99.90
16846;DHT22;8539;53.188;8.696;2022-11-20T15:32:46;-0.10;99.90
16846;DHT22;8539;53.188;8.696;2022-11-20T15:35:14;-0.10;99.90
16846;DHT22;8539;53.188;8.696;2022-11-20T15:37:41;-0.20;99.90
16846;DHT22;8539;53.188;8.696;2022-11-20T15:40:08;-0.30;99.90
16846;DHT22;8539;53.188;8.696;2022-11-20T15:42:35;-0.30;99.90
16846;DHT22;8539;53.188;8.696;2022-11-20T15:45:01;0.00;99.90
16846;DHT22;8539;53.188;8.696;2022-11-20T15:47:35;-0.40;99.90
16846;DHT22;8539;53.188;8.696;2022-11-20T15:50:01;-0.10;99.90
16846;DHT22;8539;53.188;8.696;2022-11-20T15:52:27;-0.50;99.90
16846;DHT22;8539;53.188;8.696;2022-11-20T15:54:53;-0.60;99.90
16846;DHT22;8539;53.188;8.696;2022-11-20T15:57:19;0.50;99.90
16846;DHT22;8539;53.188;8.696;2022-11-20T15:59:45;-0.70;99.90
16846;DHT22;8539;53.188;8.696;2022-11-20T16:02:11;-0.80;99.90
16846;DHT22;8539;53.188;8.696;2022-11-20T16:04:38;-0.10;99.90
16846;DHT22;8539;53.188;8.696;2022-11-20T16:07:04;-1.00;99.90
16846;DHT22;8539;53.188;8.696;2022-11-20T16:09:31;-0.60;99.90
16846;DHT22;8539;53.188;8.696;2022-11-20T16:11:57;-0.50;99.90
16846;DHT22;8539;53.188;8.696;2022-11-20T16:14:26;-0.50;99.90
16846;DHT22;8539;53.188;8.696;2022-11-20T16:17:11;-1.00;99.90
16846;DHT22;8539;53.188;8.696;2022-11-20T16:19:37;-0.60;99.90
16846;DHT22;8539;53.188;8.696;2022-11-20T16:22:03;-0.60;99.90
16846;DHT22;8539;53.188;8.696;2022-11-20T16:24:30;-1.00;99.90
16846;DHT22;8539;53.188;8.696;2022-11-20T16:26:56;-1.10;99.90
16846;DHT22;8539;53.188;8.696;2022-11-20T16:29:23;-1.10;99.90
16846;DHT22;8539;53.188;8.696;2022-11-20T16:31:49;-0.60;99.90
16846;DHT22;8539;53.188;8.696;2022-11-20T16:34:16;-1.00;99.90
16846;DHT22;8539;53.188;8.696;2022-11-20T16:36:43;-1.10;99.90
16846;DHT22;8539;53.188;8.696;2022-11-20T16:39:11;-1.00;99.90
16846;DHT22;8539;53.188;8.696;2022-11-20T16:41:37;-0.40;99.90
16846;DHT22;8539;53.188;8.696;2022-11-20T16:44:08;-0.60;99.90
16846;DHT22;8539;53.188;8.696;2022-11-20T16:46:35;-1.00;99.90
16846;DHT22;8539;53.188;8.696;2022-11-20T16:49:04;-1.00;99.90
16846;DHT22;8539;53.188;8.696;2022-11-20T16:51:33;-0.50;99.90
16846;DHT22;8539;53.188;8.696;2022-11-20T16:54:07;-0.90;99.90
16846;DHT22;8539;53.188;8.696;2022-11-20T16:56:33;-0.90;99.90
16846;DHT22;8539;53.188;8.696;2022-11-20T16:59:00;-0.70;99.90
16846;DHT22;8539;53.188;8.696;2022-11-20T17:01:28;-0.80;99.90
16846;DHT22;8539;53.188;8.696;2022-11-20T17:06:23;-0.40;99.90
16846;DHT22;8539;53.188;8.696;2022-11-20T17:08:49;-0.80;99.90
16846;DHT22;8539;53.188;8.696;2022-11-20T17:11:17;-0.70;99.90
16846;DHT22;8539;53.188;8.696;2022-11-20T17:13:44;-0.60;99.90
16846;DHT22;8539;53.188;8.696;2022-11-20T17:16:16;-0.70;99.90
16846;DHT22;8539;53.188;8.696;2022-11-20T17:18:42;-0.70;99.90
16846;DHT22;8539;53.188;8.696;2022-11-20T17:21:09;-0.10;99.90
16846;DHT22;8539;53.188;8.696;2022-11-20T17:23:38;-0.30;99.90
16846;DHT22;8539;53.188;8.696;2022-11-20T17:26:13;-0.70;99.90
16846;DHT22;8539;53.188;8.696;2022-11-20T17:28:41;-0.70;99.90
16846;DHT22;8539;53.188;8.696;2022-11-20T17:31:13;-0.60;99.90
16846;DHT22;8539;53.188;8.696;2022-11-20T17:33:41;-0.70;99.90
16846;DHT22;8539;53.188;8.696;2022-11-20T17:36:09;-0.70;99.90
16846;DHT22;8539;53.188;8.696;2022-11-20T17:38:35;-0.70;99.90
16846;DHT22;8539;53.188;8.696;2022-11-20T17:41:12;-0.70;99.90
16846;DHT22;8539;53.188;8.696;2022-11-20T17:43:39;-0.70;99.90
16846;DHT22;8539;53.188;8.696;2022-11-20T17:46:16;-0.70;99.90
16846;DHT22;8539;53.188;8.696;2022-11-20T17:48:44;-0.70;99.90
16846;DHT22;8539;53.188;8.696;2022-11-20T17:51:13;-0.30;99.90
16846;DHT22;8539;53.188;8.696;2022-11-20T17:53:41;-0.70;99.90
16846;DHT22;8539;53.188;8.696;2022-11-20T17:56:07;-0.80;99.90
16846;DHT22;8539;53.188;8.696;2022-11-20T17:58:52;-0.50;99.90
16846;DHT22;8539;53.188;8.696;2022-11-20T18:01:18;-0.40;99.90
16846;DHT22;8539;53.188;8.696;2022-11-20T18:03:45;-0.90;99.90
16846;DHT22;8539;53.188;8.696;2022-11-20T18:06:19;-0.10;99.90
16846;DHT22;8539;53.188;8.696;2022-11-20T18:08:46;-0.90;99.90
16846;DHT22;8539;53.188;8.696;2022-11-20T18:11:18;-0.60;99.90
16846;DHT22;8539;53.188;8.696;2022-11-20T18:13:47;-1.00;99.90
16846;DHT22;8539;53.188;8.696;2022-11-20T18:16:35;-0.60;99.90
16846;DHT22;8539;53.188;8.696;2022-11-20T18:19:04;-1.00;99.90
16846;DHT22;8539;53.188;8.696;2022-11-20T18:21:30;-1.10;99.90
16846;DHT22;8539;53.188;8.696;2022-11-20T18:23:59;-0.80;99.90
16846;DHT22;8539;53.188;8.696;2022-11-20T18:26:26;-1.20;99.90
16846;DHT22;8539;53.188;8.696;2022-11-20T18:28:52;-0.60;99.90
16846;DHT22;8539;53.188;8.696;2022-11-20T18:31:19;-0.70;99.90
16846;DHT22;8539;53.188;8.696;2022-11-20T18:33:45;-1.30;99.90